Henry Post Army Air Field (Fort Sill)
KFSI : now visible

Airfield :











YOU CAN JOIN US ON...

 
LOGIN :

Register | Disclaimer

   EN    FR    IT 

 









Legend :    VFR   Marginal VFR   IFR   Intensive IFR   Very Intensive IFR
Visi :
Ceiling :
>= 8 km
>= 3000ft
5 to 8 km
1000 to 3000 ft
1500m to 5 km
500 to 1000 ft
800 to 1500m
200 to 500 ft
< 800m
< 200 ft
Symbols :   Thunderstorms  Fog  Heavy snow  Heavy precipitations  Wind > 20 kt






- Airport Elevation : 1189 ft


KFSI - Henry Post Army Air Field (Fort Sill)

CURRENT METAR :
  • 140056Z 00000KT 10SM CLR 13/04 A2986 RMK AO2A SLPNO

EXPIRED METARs :
  • 132356Z AUTO 18005KT 10SM CLR 12/06 A2982 RMK AO2 SLP100 T01210055 10177 20121 51008
  • 132256Z AUTO 17004KT 10SM CLR 15/06 A2982 RMK AO2 SLP099 T01510064

TAF TAF KFSI
Valid from the 13 at 22:00 until the 15 at 04:00 UTC


132200Z 1322/1504 VRB06KT 9999 FEW100 QNH2975INS TX17/1322Z TN02/1412Z LAST NO AMDS AFT 1403 NEXT 1714



MET'MAP, your aeronautical weather chart ! - Copyright ORBIFLY December 2007 - Disclaimer

ORBIFLY MET'MAP TEAM :

Programming & Development : Alexandra Zaïnal
Concept & original design : Baudouin d'Aumeries
Assistance for programming : Marc-Olivier Méhu
Technical & hardware support : Manuel Goepfert

Contact : metmap@orbifly.com




SOURCES & CREDITS :

   NOAA       Earth
Advisory